createdAt,value
2022-12-24T00:00:07.727Z,20.70
2022-12-24T00:02:35.256Z,20.70
2022-12-24T00:05:02.356Z,20.70
2022-12-24T00:07:29.773Z,20.70
2022-12-24T00:09:56.637Z,20.70
2022-12-24T00:12:23.741Z,20.70
2022-12-24T00:14:51.337Z,20.70
2022-12-24T00:17:18.223Z,20.70
2022-12-24T00:19:45.075Z,20.70
2022-12-24T00:22:11.908Z,20.60
2022-12-24T00:24:38.739Z,20.60
2022-12-24T00:27:06.300Z,20.60
2022-12-24T00:29:33.804Z,20.60
2022-12-24T00:32:00.849Z,20.60
2022-12-24T00:34:27.936Z,20.60
2022-12-24T00:36:54.757Z,20.60
2022-12-24T00:39:21.701Z,20.60
2022-12-24T00:41:48.553Z,20.60
2022-12-24T00:44:15.543Z,20.60
2022-12-24T00:46:42.522Z,20.60
2022-12-24T00:49:12.158Z,20.60
2022-12-24T00:51:39.395Z,20.60
2022-12-24T00:54:07.111Z,20.60
2022-12-24T00:56:34.400Z,20.60
2022-12-24T00:59:01.305Z,20.60
2022-12-24T01:01:28.711Z,20.60
2022-12-24T01:04:15.729Z,20.60
2022-12-24T01:06:42.803Z,20.50
2022-12-24T01:09:09.754Z,20.50
2022-12-24T01:11:37.141Z,20.50
2022-12-24T01:14:04.154Z,20.40
2022-12-24T01:16:32.177Z,20.40
2022-12-24T01:18:59.227Z,20.40
2022-12-24T01:21:26.114Z,20.40
2022-12-24T01:23:53.376Z,20.40
2022-12-24T01:26:20.198Z,20.30
2022-12-24T01:28:47.059Z,20.40
2022-12-24T01:31:16.489Z,20.40
2022-12-24T01:33:44.518Z,20.30
2022-12-24T01:36:12.796Z,20.30
2022-12-24T01:38:40.058Z,20.30
2022-12-24T01:41:25.811Z,20.30
2022-12-24T01:43:52.753Z,20.20
2022-12-24T01:46:20.873Z,20.20
2022-12-24T01:48:51.824Z,20.20
2022-12-24T01:51:35.986Z,20.20
2022-12-24T01:54:05.546Z,20.20
2022-12-24T01:56:33.159Z,20.20
2022-12-24T01:59:07.018Z,20.20
2022-12-24T02:01:34.298Z,20.20
2022-12-24T02:04:03.778Z,20.10
2022-12-24T02:06:30.601Z,20.10
2022-12-24T02:08:57.449Z,20.10
2022-12-24T02:11:24.461Z,20.10
2022-12-24T02:13:58.113Z,20.00
2022-12-24T02:16:55.254Z,20.00
2022-12-24T02:19:59.031Z,20.10
2022-12-24T02:22:49.677Z,20.00
2022-12-24T02:25:44.078Z,20.00
2022-12-24T02:28:44.331Z,20.00
2022-12-24T02:31:24.784Z,20.00
2022-12-24T02:34:23.655Z,19.90
2022-12-24T02:36:58.336Z,19.90
2022-12-24T02:39:34.203Z,19.90
2022-12-24T02:42:08.025Z,19.80
2022-12-24T02:45:08.037Z,19.80
2022-12-24T02:47:35.620Z,19.90
2022-12-24T02:50:04.928Z,19.80
2022-12-24T02:52:33.363Z,19.80
2022-12-24T02:55:07.633Z,19.80
2022-12-24T02:57:49.223Z,19.70
2022-12-24T03:00:18.648Z,19.70
2022-12-24T03:03:07.496Z,19.70
2022-12-24T03:05:49.830Z,19.80
2022-12-24T03:08:49.348Z,19.80
2022-12-24T03:11:16.443Z,19.80
2022-12-24T03:13:44.053Z,19.70
2022-12-24T03:16:14.935Z,19.70
2022-12-24T03:18:44.915Z,19.70
2022-12-24T03:21:25.596Z,19.80
2022-12-24T03:23:52.547Z,19.80
2022-12-24T03:26:20.640Z,19.70
2022-12-24T03:28:48.481Z,19.70
2022-12-24T03:31:15.682Z,19.70
2022-12-24T03:33:42.977Z,19.70
2022-12-24T03:36:10.602Z,19.70
2022-12-24T03:38:37.903Z,19.70
2022-12-24T03:41:05.034Z,19.70
2022-12-24T03:43:31.969Z,19.70
2022-12-24T03:45:58.971Z,19.70
2022-12-24T03:48:32.404Z,19.70
2022-12-24T03:50:59.680Z,19.70
2022-12-24T03:53:26.570Z,19.70
2022-12-24T03:55:53.395Z,19.70
2022-12-24T03:58:20.303Z,19.70
2022-12-24T04:00:47.232Z,19.70
2022-12-24T04:03:14.324Z,19.70
2022-12-24T04:05:41.324Z,19.70
2022-12-24T04:08:08.203Z,19.60
2022-12-24T04:10:35.012Z,19.60
2022-12-24T04:13:01.879Z,19.60
2022-12-24T04:15:28.775Z,19.60
2022-12-24T04:17:55.662Z,19.60
2022-12-24T04:20:22.577Z,19.60
2022-12-24T04:22:49.384Z,19.60
2022-12-24T04:25:16.217Z,19.60
2022-12-24T04:27:43.065Z,19.60
2022-12-24T04:30:10.318Z,19.60
2022-12-24T04:32:37.201Z,19.60
2022-12-24T04:35:05.097Z,19.60
2022-12-24T04:37:34.024Z,19.60
2022-12-24T04:40:00.938Z,19.60
2022-12-24T04:42:27.793Z,19.60
2022-12-24T04:44:54.660Z,19.50
2022-12-24T04:47:21.549Z,19.50
2022-12-24T04:49:48.424Z,19.50
2022-12-24T04:52:15.306Z,19.50
2022-12-24T04:54:42.227Z,19.50
2022-12-24T04:57:09.068Z,19.50
2022-12-24T04:59:35.913Z,19.50
2022-12-24T05:02:02.892Z,19.50
2022-12-24T05:04:30.004Z,19.50
2022-12-24T05:06:56.867Z,19.50
2022-12-24T05:09:23.725Z,19.50
2022-12-24T05:11:50.559Z,19.50
2022-12-24T05:14:17.460Z,19.40
2022-12-24T05:16:44.363Z,19.50
2022-12-24T05:19:11.855Z,19.40
2022-12-24T05:21:38.728Z,19.40
2022-12-24T05:24:24.142Z,19.40
2022-12-24T05:26:53.956Z,19.40
2022-12-24T05:29:21.325Z,19.40
2022-12-24T05:31:48.257Z,19.40
2022-12-24T05:34:16.301Z,19.40
2022-12-24T05:36:43.927Z,19.40
2022-12-24T05:39:17.560Z,19.40
2022-12-24T05:41:44.931Z,19.40
2022-12-24T05:44:11.799Z,19.40
2022-12-24T05:46:38.846Z,19.40
2022-12-24T05:49:05.785Z,19.30
2022-12-24T05:51:32.771Z,19.30
2022-12-24T05:53:59.624Z,19.30
2022-12-24T05:56:26.712Z,19.30
2022-12-24T05:58:54.630Z,19.30
2022-12-24T06:01:22.905Z,19.30
2022-12-24T06:03:50.816Z,19.30
2022-12-24T06:06:22.717Z,19.30
2022-12-24T06:08:51.245Z,19.30
2022-12-24T06:11:23.027Z,19.30
2022-12-24T06:13:50.064Z,19.30
2022-12-24T06:16:18.540Z,19.30
2022-12-24T06:18:45.876Z,19.30
2022-12-24T06:21:13.186Z,19.20
2022-12-24T06:23:42.611Z,19.30
2022-12-24T06:26:12.352Z,19.30
2022-12-24T06:28:39.302Z,19.30
2022-12-24T06:31:07.587Z,19.30
2022-12-24T06:33:35.161Z,19.30
2022-12-24T06:36:02.084Z,19.20
2022-12-24T06:38:31.148Z,19.20
2022-12-24T06:40:58.348Z,19.20
2022-12-24T06:43:25.231Z,19.20
2022-12-24T06:45:52.116Z,19.20
2022-12-24T06:48:19.001Z,19.20
2022-12-24T06:50:46.763Z,19.20
2022-12-24T06:53:13.688Z,19.20
2022-12-24T06:55:40.513Z,19.20
2022-12-24T06:58:07.474Z,19.20
2022-12-24T07:00:34.552Z,19.20
2022-12-24T07:03:01.767Z,19.20
2022-12-24T07:05:28.693Z,19.20
2022-12-24T07:07:55.624Z,19.20
2022-12-24T07:10:22.761Z,19.20
2022-12-24T07:12:49.817Z,19.10
2022-12-24T07:15:16.808Z,19.20
2022-12-24T07:17:43.965Z,19.10
2022-12-24T07:20:14.540Z,19.20
2022-12-24T07:22:41.779Z,19.10
2022-12-24T07:25:09.253Z,19.10
2022-12-24T07:27:36.320Z,19.10
2022-12-24T07:30:03.917Z,19.10
2022-12-24T07:32:30.819Z,19.10
2022-12-24T07:34:57.682Z,19.10
2022-12-24T07:37:24.678Z,19.10
2022-12-24T07:39:51.500Z,19.10
2022-12-24T07:42:18.422Z,19.10
2022-12-24T07:44:45.258Z,19.10
2022-12-24T07:47:12.380Z,18.90
2022-12-24T07:49:39.299Z,18.90
2022-12-24T07:52:06.199Z,18.80
2022-12-24T07:54:33.071Z,18.70
2022-12-24T07:57:00.691Z,18.70
2022-12-24T07:59:27.596Z,18.70
2022-12-24T08:01:54.548Z,18.80
2022-12-24T08:04:21.598Z,18.80
2022-12-24T08:06:48.410Z,18.80
2022-12-24T08:09:15.413Z,18.90
2022-12-24T08:11:49.731Z,18.90
2022-12-24T08:14:19.110Z,18.90
2022-12-24T08:16:46.089Z,19.00
2022-12-24T08:19:13.072Z,19.10
2022-12-24T08:21:39.969Z,19.10
2022-12-24T08:24:07.096Z,19.10
2022-12-24T08:26:34.206Z,19.20
2022-12-24T08:29:01.482Z,19.30
2022-12-24T08:31:28.389Z,19.30
2022-12-24T08:33:55.288Z,19.30
2022-12-24T08:36:22.388Z,19.40
2022-12-24T08:38:49.249Z,19.50
2022-12-24T08:41:16.103Z,19.50
2022-12-24T08:43:42.967Z,19.60
2022-12-24T08:46:10.676Z,19.60
2022-12-24T08:48:38.321Z,19.60
2022-12-24T08:51:10.065Z,19.60
2022-12-24T08:53:37.569Z,19.70
2022-12-24T08:56:06.053Z,19.70
2022-12-24T08:58:33.191Z,19.80
2022-12-24T09:01:00.786Z,19.80
2022-12-24T09:03:28.517Z,19.80
2022-12-24T09:05:55.779Z,19.80
2022-12-24T09:08:22.751Z,19.80
2022-12-24T09:10:49.622Z,19.80
2022-12-24T09:13:16.552Z,19.90
2022-12-24T09:15:43.524Z,20.00
2022-12-24T09:18:10.848Z,20.00
2022-12-24T09:20:41.499Z,20.00
2022-12-24T09:23:11.271Z,20.00
2022-12-24T09:25:42.447Z,20.00
2022-12-24T09:28:09.507Z,20.10
2022-12-24T09:30:39.187Z,20.10
2022-12-24T09:33:06.054Z,20.10
2022-12-24T09:35:32.935Z,20.10
2022-12-24T09:38:03.006Z,20.10
2022-12-24T09:40:37.651Z,20.10
2022-12-24T09:43:12.057Z,20.20
2022-12-24T09:45:42.280Z,20.20
2022-12-24T09:48:24.290Z,20.20
2022-12-24T09:51:05.720Z,20.20
2022-12-24T09:53:44.397Z,20.20
2022-12-24T09:56:42.241Z,20.20
2022-12-24T09:59:15.630Z,20.20
2022-12-24T10:01:42.688Z,20.10
2022-12-24T10:04:21.387Z,20.10
2022-12-24T10:07:30.307Z,20.20
2022-12-24T10:10:07.272Z,20.20
2022-12-24T10:12:43.268Z,20.10
2022-12-24T10:15:30.983Z,20.10
2022-12-24T10:18:06.944Z,20.20
2022-12-24T10:20:49.408Z,20.30
2022-12-24T10:23:30.592Z,20.30
2022-12-24T10:26:18.785Z,20.40
2022-12-24T10:29:12.427Z,20.50
2022-12-24T10:32:08.756Z,20.50
2022-12-24T10:35:16.681Z,20.50
2022-12-24T10:37:48.526Z,20.50
2022-12-24T10:40:43.065Z,20.50
2022-12-24T10:43:17.742Z,20.50
2022-12-24T10:45:57.698Z,20.50
2022-12-24T10:48:27.797Z,20.60
2022-12-24T10:51:13.299Z,20.60
2022-12-24T10:53:57.858Z,20.70
2022-12-24T10:56:24.739Z,20.70
2022-12-24T10:58:53.906Z,20.70
2022-12-24T11:01:22.131Z,20.70
2022-12-24T11:04:01.223Z,20.80
2022-12-24T11:06:28.121Z,20.80
2022-12-24T11:09:17.369Z,20.80
2022-12-24T11:11:44.218Z,20.90
2022-12-24T11:14:16.596Z,20.90
2022-12-24T11:16:56.058Z,20.90
2022-12-24T11:19:35.199Z,20.90
2022-12-24T11:22:10.814Z,20.90
2022-12-24T11:24:38.685Z,20.90
2022-12-24T11:27:31.102Z,20.80
2022-12-24T11:30:27.617Z,20.80
2022-12-24T11:33:00.500Z,20.90
2022-12-24T11:35:29.456Z,20.90
2022-12-24T11:38:02.438Z,20.90
2022-12-24T11:40:44.034Z,20.90
2022-12-24T11:43:21.885Z,20.90
2022-12-24T11:45:54.447Z,20.90
2022-12-24T11:48:33.142Z,20.90
2022-12-24T11:51:05.499Z,21.00
2022-12-24T11:54:04.240Z,21.00
2022-12-24T11:56:41.165Z,21.00
2022-12-24T11:59:25.102Z,21.00
2022-12-24T12:02:17.792Z,21.00
2022-12-24T12:04:48.714Z,21.00
2022-12-24T12:07:20.953Z,21.00
2022-12-24T12:09:56.837Z,21.10
2022-12-24T12:12:29.196Z,21.10
2022-12-24T12:15:11.903Z,21.10
2022-12-24T12:17:50.253Z,21.10
2022-12-24T12:20:31.489Z,21.10
2022-12-24T12:23:26.136Z,21.10
2022-12-24T12:25:59.718Z,21.20
2022-12-24T12:28:40.665Z,21.20
2022-12-24T12:31:16.731Z,21.30
2022-12-24T12:33:47.236Z,21.30
2022-12-24T12:36:16.134Z,21.30
2022-12-24T12:38:43.015Z,21.30
2022-12-24T12:41:27.714Z,21.30
2022-12-24T12:44:03.419Z,21.40
2022-12-24T12:46:52.037Z,21.40
2022-12-24T12:49:34.163Z,21.50
2022-12-24T12:52:22.250Z,21.40
2022-12-24T12:55:20.518Z,21.50
2022-12-24T12:57:52.778Z,21.50
2022-12-24T13:00:20.111Z,21.40
2022-12-24T13:03:38.015Z,21.40
2022-12-24T13:06:26.221Z,21.40
2022-12-24T13:08:53.102Z,21.40
2022-12-24T13:11:58.920Z,21.30
2022-12-24T13:14:47.454Z,21.40
2022-12-24T13:17:46.574Z,21.30
2022-12-24T13:20:29.666Z,21.30
2022-12-24T13:22:56.632Z,21.20
2022-12-24T13:25:38.694Z,21.10
2022-12-24T13:28:33.318Z,21.10
2022-12-24T13:31:28.154Z,21.20
2022-12-24T13:33:57.336Z,21.10
2022-12-24T13:36:24.628Z,21.10
2022-12-24T13:38:52.865Z,21.10
2022-12-24T13:41:40.657Z,21.10
2022-12-24T13:44:12.909Z,21.10
2022-12-24T13:47:03.292Z,21.10
2022-12-24T13:49:42.352Z,21.20
2022-12-24T13:52:12.092Z,21.20
2022-12-24T13:54:44.246Z,21.20
2022-12-24T13:57:31.006Z,21.20
2022-12-24T14:00:09.258Z,21.20
2022-12-24T14:02:52.482Z,21.20
2022-12-24T14:05:34.987Z,21.30
2022-12-24T14:08:05.022Z,21.30
2022-12-24T14:10:38.821Z,21.30
2022-12-24T14:13:10.049Z,21.30
2022-12-24T14:15:49.359Z,21.30
2022-12-24T14:18:21.534Z,21.40
2022-12-24T14:20:50.670Z,21.30
2022-12-24T14:23:45.600Z,21.40
2022-12-24T14:26:19.377Z,21.40
2022-12-24T14:29:22.865Z,21.30
2022-12-24T14:31:56.809Z,21.40
2022-12-24T14:34:23.981Z,21.30
2022-12-24T14:36:53.741Z,21.40
2022-12-24T14:39:31.439Z,21.40
2022-12-24T14:42:30.043Z,21.40
2022-12-24T14:45:22.403Z,21.40
2022-12-24T14:47:49.238Z,21.40
2022-12-24T14:50:26.120Z,21.40
2022-12-24T14:53:18.592Z,21.40
2022-12-24T14:55:47.856Z,21.40
2022-12-24T14:58:53.366Z,21.40
2022-12-24T15:01:24.176Z,21.40
2022-12-24T15:04:26.456Z,21.40
2022-12-24T15:06:54.589Z,21.40
2022-12-24T15:09:23.053Z,21.40
2022-12-24T15:11:52.747Z,21.40
2022-12-24T15:14:21.255Z,21.40
2022-12-24T15:16:58.792Z,21.40
2022-12-24T15:19:33.753Z,21.40
2022-12-24T15:22:01.984Z,21.40
2022-12-24T15:24:37.441Z,21.40
2022-12-24T15:27:22.229Z,21.40
2022-12-24T15:29:52.321Z,21.40
2022-12-24T15:32:20.603Z,21.40
2022-12-24T15:34:52.719Z,21.40
2022-12-24T15:37:28.464Z,21.40
2022-12-24T15:39:59.568Z,21.40
2022-12-24T15:42:28.008Z,21.50
2022-12-24T15:45:07.269Z,21.40
2022-12-24T15:47:40.129Z,21.50
2022-12-24T15:50:31.609Z,21.40
2022-12-24T15:53:19.843Z,21.40
2022-12-24T15:56:10.512Z,21.40
2022-12-24T15:58:47.053Z,21.50
2022-12-24T16:01:14.124Z,21.40
2022-12-24T16:04:02.515Z,21.40
2022-12-24T16:06:59.243Z,21.50
2022-12-24T16:09:46.247Z,21.50
2022-12-24T16:12:23.933Z,21.50
2022-12-24T16:14:54.162Z,21.50
2022-12-24T16:17:26.426Z,21.50
2022-12-24T16:19:56.039Z,21.50
2022-12-24T16:22:32.486Z,21.40
2022-12-24T16:25:00.414Z,21.40
2022-12-24T16:27:27.690Z,21.40
2022-12-24T16:29:55.085Z,21.40
2022-12-24T16:32:36.184Z,21.40
2022-12-24T16:35:04.927Z,21.50
2022-12-24T16:37:32.120Z,21.40
2022-12-24T16:39:59.138Z,21.40
2022-12-24T16:42:44.657Z,21.40
2022-12-24T16:45:11.639Z,21.40
2022-12-24T16:47:42.762Z,21.40
2022-12-24T16:50:15.696Z,21.40
2022-12-24T16:52:42.623Z,21.40
2022-12-24T16:55:13.317Z,21.40
2022-12-24T16:57:41.075Z,21.40
2022-12-24T17:00:09.693Z,21.40
2022-12-24T17:02:36.665Z,21.40
2022-12-24T17:05:03.760Z,21.40
2022-12-24T17:07:30.741Z,21.30
2022-12-24T17:09:57.729Z,21.30
2022-12-24T17:12:24.646Z,21.30
2022-12-24T17:14:51.564Z,21.30
2022-12-24T17:17:24.673Z,21.30
2022-12-24T17:19:51.646Z,21.30
2022-12-24T17:22:18.539Z,21.30
2022-12-24T17:24:45.543Z,21.30
2022-12-24T17:27:12.727Z,21.20
2022-12-24T17:29:39.576Z,21.20
2022-12-24T17:32:06.509Z,21.20
2022-12-24T17:34:33.378Z,21.20
2022-12-24T17:37:00.422Z,21.20
2022-12-24T17:39:28.030Z,21.20
2022-12-24T17:41:55.097Z,21.30
2022-12-24T17:44:21.973Z,21.30
2022-12-24T17:46:49.161Z,21.30
2022-12-24T17:49:16.027Z,21.40
2022-12-24T17:51:45.563Z,21.30
2022-12-24T17:54:13.371Z,21.30
2022-12-24T17:56:40.335Z,21.30
2022-12-24T17:59:07.192Z,21.30
2022-12-24T18:01:34.158Z,21.30
2022-12-24T18:04:02.331Z,21.30
2022-12-24T18:06:29.688Z,21.20
2022-12-24T18:08:57.184Z,21.20
2022-12-24T18:11:30.560Z,21.20
2022-12-24T18:13:58.102Z,21.20
2022-12-24T18:16:31.594Z,21.20
2022-12-24T18:18:59.378Z,21.20
2022-12-24T18:21:28.242Z,21.20
2022-12-24T18:23:56.843Z,21.10
2022-12-24T18:26:26.334Z,21.20
2022-12-24T18:28:54.818Z,21.10
2022-12-24T18:31:22.360Z,21.10
2022-12-24T18:33:50.150Z,21.10
2022-12-24T18:36:17.992Z,21.10
2022-12-24T18:38:45.127Z,21.10
2022-12-24T18:41:14.962Z,21.10
2022-12-24T18:43:41.941Z,21.10
2022-12-24T18:46:30.218Z,21.10
2022-12-24T18:48:59.449Z,21.10
2022-12-24T18:51:29.705Z,21.10
2022-12-24T18:53:56.844Z,21.10
2022-12-24T18:56:25.335Z,21.10
2022-12-24T18:58:54.495Z,21.10
2022-12-24T19:01:27.025Z,21.10
2022-12-24T19:03:54.395Z,21.10
2022-12-24T19:06:22.072Z,21.10
2022-12-24T19:08:58.627Z,21.10
2022-12-24T19:11:27.449Z,21.10
2022-12-24T19:13:54.376Z,21.10
2022-12-24T19:16:21.853Z,21.10
2022-12-24T19:18:49.197Z,21.10
2022-12-24T19:21:17.430Z,21.10
2022-12-24T19:23:45.020Z,21.10
2022-12-24T19:26:12.864Z,21.00
2022-12-24T19:28:39.994Z,21.00
2022-12-24T19:31:12.312Z,21.00
2022-12-24T19:33:43.221Z,21.00
2022-12-24T19:36:12.738Z,21.00
2022-12-24T19:38:39.539Z,21.00
2022-12-24T19:41:20.090Z,21.00
2022-12-24T19:43:48.899Z,20.90
2022-12-24T19:46:17.739Z,21.00
2022-12-24T19:48:49.144Z,20.90
2022-12-24T19:51:16.909Z,20.90
2022-12-24T19:53:43.832Z,20.90
2022-12-24T19:56:10.857Z,21.00
2022-12-24T19:58:37.713Z,21.00
2022-12-24T20:01:14.940Z,21.00
2022-12-24T20:03:42.962Z,21.00
2022-12-24T20:06:09.913Z,21.00
2022-12-24T20:08:38.348Z,21.00
2022-12-24T20:11:10.613Z,21.00
2022-12-24T20:13:39.124Z,21.00
2022-12-24T20:16:09.699Z,21.00
2022-12-24T20:18:36.777Z,21.00
2022-12-24T20:21:06.122Z,21.00
2022-12-24T20:23:34.810Z,21.00
2022-12-24T20:26:03.687Z,21.00
2022-12-24T20:28:32.750Z,21.00
2022-12-24T20:30:59.700Z,21.00
2022-12-24T20:33:26.760Z,21.00
2022-12-24T20:35:53.629Z,21.00
2022-12-24T20:38:20.576Z,21.00
2022-12-24T20:40:47.507Z,21.10
2022-12-24T20:43:14.410Z,21.00
2022-12-24T20:45:52.042Z,21.10
2022-12-24T20:48:19.607Z,21.00
2022-12-24T20:50:46.734Z,21.00
2022-12-24T20:53:14.114Z,21.00
2022-12-24T20:55:41.081Z,21.00
2022-12-24T20:58:07.976Z,21.00
2022-12-24T21:00:36.181Z,21.00
2022-12-24T21:03:03.203Z,21.00
2022-12-24T21:05:30.145Z,21.00
2022-12-24T21:07:57.009Z,21.00
2022-12-24T21:10:29.074Z,21.00
2022-12-24T21:12:59.297Z,21.00
2022-12-24T21:15:28.846Z,21.00
2022-12-24T21:17:56.894Z,20.90
2022-12-24T21:20:29.087Z,21.00
2022-12-24T21:23:01.302Z,20.90
2022-12-24T21:25:28.544Z,20.90
2022-12-24T21:27:55.696Z,20.90
2022-12-24T21:30:23.515Z,20.90
2022-12-24T21:32:50.571Z,20.90
2022-12-24T21:35:17.580Z,20.90
2022-12-24T21:37:44.519Z,20.90
2022-12-24T21:40:12.051Z,20.90
2022-12-24T21:42:38.964Z,20.90
2022-12-24T21:45:06.666Z,20.90
2022-12-24T21:47:34.998Z,20.90
2022-12-24T21:50:20.748Z,20.90
2022-12-24T21:52:48.956Z,20.90
2022-12-24T21:55:15.898Z,20.90
2022-12-24T21:57:54.720Z,20.80
2022-12-24T22:00:21.770Z,20.90
2022-12-24T22:02:53.565Z,20.80
2022-12-24T22:05:20.929Z,20.80
2022-12-24T22:08:06.203Z,20.80
2022-12-24T22:10:51.968Z,20.80
2022-12-24T22:13:19.018Z,20.80
2022-12-24T22:15:48.221Z,20.80
2022-12-24T22:18:15.942Z,20.80
2022-12-24T22:20:43.756Z,20.70
2022-12-24T22:23:11.201Z,20.70
2022-12-24T22:25:38.366Z,20.70
2022-12-24T22:28:05.664Z,20.70
2022-12-24T22:30:36.219Z,20.70
2022-12-24T22:33:03.164Z,20.70
2022-12-24T22:35:30.044Z,20.70
2022-12-24T22:38:00.129Z,20.80
2022-12-24T22:40:28.035Z,20.80
2022-12-24T22:42:55.051Z,20.80
2022-12-24T22:45:22.782Z,20.80
2022-12-24T22:47:50.116Z,20.80
2022-12-24T22:50:17.459Z,20.80
2022-12-24T22:52:44.316Z,20.80
2022-12-24T22:55:11.263Z,20.70
2022-12-24T22:57:38.144Z,20.80
2022-12-24T23:00:20.358Z,20.80
2022-12-24T23:02:47.295Z,20.80
2022-12-24T23:05:15.116Z,20.80
2022-12-24T23:07:42.061Z,20.80
2022-12-24T23:10:09.282Z,20.80
2022-12-24T23:12:54.667Z,20.80
2022-12-24T23:15:21.503Z,20.80
2022-12-24T23:17:49.920Z,20.80
2022-12-24T23:20:16.939Z,20.80
2022-12-24T23:22:43.863Z,20.70
2022-12-24T23:25:10.735Z,20.80
2022-12-24T23:27:38.704Z,20.80
2022-12-24T23:30:06.373Z,20.70
2022-12-24T23:32:33.250Z,20.80
2022-12-24T23:35:00.197Z,20.80
2022-12-24T23:37:34.632Z,20.70
2022-12-24T23:40:02.520Z,20.80
2022-12-24T23:42:29.502Z,20.80
2022-12-24T23:44:56.346Z,20.70
2022-12-24T23:47:23.219Z,20.70
2022-12-24T23:49:50.215Z,20.70
2022-12-24T23:52:17.125Z,20.70
2022-12-24T23:54:44.083Z,20.70
2022-12-24T23:57:11.007Z,20.70
2022-12-24T23:59:37.864Z,20.70
